createdAt,value
2023-06-24T00:01:51.825Z,14.67
2023-06-24T00:04:22.203Z,18.33
2023-06-24T00:06:50.546Z,11.33
2023-06-24T00:09:18.839Z,14.25
2023-06-24T00:11:47.817Z,14.00
2023-06-24T00:14:16.518Z,13.33
2023-06-24T00:16:44.779Z,18.50
2023-06-24T00:19:13.068Z,14.67
2023-06-24T00:21:41.457Z,17.33
2023-06-24T00:24:10.541Z,15.00
2023-06-24T00:26:38.825Z,16.75
2023-06-24T00:29:07.122Z,15.50
2023-06-24T00:31:35.646Z,15.67
2023-06-24T00:34:04.050Z,12.00
2023-06-24T00:36:36.911Z,13.00
2023-06-24T00:39:09.318Z,18.00
2023-06-24T00:41:37.540Z,14.00
2023-06-24T00:44:06.125Z,16.50
2023-06-24T00:46:34.631Z,16.67
2023-06-24T00:49:04.159Z,13.50
2023-06-24T00:51:33.638Z,13.25
2023-06-24T00:54:02.081Z,17.00
2023-06-24T00:56:34.973Z,17.75
2023-06-24T00:59:04.396Z,18.00
2023-06-24T01:01:36.790Z,13.00
2023-06-24T01:04:05.654Z,14.33
2023-06-24T01:06:34.265Z,16.33
2023-06-24T01:09:04.062Z,12.00
2023-06-24T01:11:32.488Z,12.67
2023-06-24T01:14:00.800Z,12.00
2023-06-24T01:16:41.182Z,13.50
2023-06-24T01:19:49.943Z,16.00
2023-06-24T01:22:36.853Z,11.50
2023-06-24T01:25:29.589Z,15.00
2023-06-24T01:28:25.018Z,13.67
2023-06-24T01:31:19.501Z,14.00
2023-06-24T01:33:52.151Z,16.50
2023-06-24T01:36:22.261Z,11.33
2023-06-24T01:38:53.963Z,15.00
2023-06-24T01:41:25.461Z,13.67
2023-06-24T01:43:54.690Z,15.50
2023-06-24T01:46:24.310Z,15.00
2023-06-24T01:48:57.310Z,12.67
2023-06-24T01:51:25.934Z,15.33
2023-06-24T01:54:01.418Z,13.50
2023-06-24T01:56:30.487Z,11.00
2023-06-24T01:59:02.605Z,11.00
2023-06-24T02:01:33.188Z,17.50
2023-06-24T02:04:02.984Z,13.50
2023-06-24T02:06:31.636Z,11.00
2023-06-24T02:09:01.660Z,13.00
2023-06-24T02:11:31.741Z,12.50
2023-06-24T02:14:01.116Z,14.00
2023-06-24T02:16:30.886Z,9.50
2023-06-24T02:18:59.248Z,12.00
2023-06-24T02:21:28.181Z,14.50
2023-06-24T02:23:56.717Z,11.67
2023-06-24T02:26:27.115Z,11.00
2023-06-24T02:28:56.196Z,11.00
2023-06-24T02:31:24.660Z,11.00
2023-06-24T02:33:53.198Z,11.33
2023-06-24T02:36:21.693Z,12.00
2023-06-24T02:38:49.925Z,12.00
2023-06-24T02:41:18.198Z,11.00
2023-06-24T02:43:46.655Z,14.50
2023-06-24T02:46:16.895Z,13.50
2023-06-24T02:48:46.878Z,18.50
2023-06-24T02:51:15.689Z,16.50
2023-06-24T02:53:44.265Z,12.00
2023-06-24T02:56:22.195Z,15.00
2023-06-24T02:58:53.707Z,13.50
2023-06-24T03:01:25.935Z,14.00
2023-06-24T03:03:58.130Z,11.50
2023-06-24T03:06:28.478Z,15.50
2023-06-24T03:08:56.849Z,14.00
2023-06-24T03:11:25.826Z,11.75
2023-06-24T03:13:54.345Z,11.50
2023-06-24T03:16:22.915Z,10.00
2023-06-24T03:18:51.208Z,15.00
2023-06-24T03:21:19.526Z,11.50
2023-06-24T03:23:47.820Z,12.00
2023-06-24T03:26:16.093Z,15.00
2023-06-24T03:28:44.519Z,13.00
2023-06-24T03:31:12.873Z,11.00
2023-06-24T03:33:45.835Z,13.50
2023-06-24T03:36:14.330Z,11.50
2023-06-24T03:38:42.630Z,10.67
2023-06-24T03:41:10.912Z,10.50
2023-06-24T03:43:39.322Z,13.00
2023-06-24T03:46:07.675Z,12.67
2023-06-24T03:48:36.845Z,11.75
2023-06-24T03:51:05.157Z,11.00
2023-06-24T03:53:34.357Z,5.50
2023-06-24T03:56:02.668Z,11.00
2023-06-24T03:58:30.964Z,11.50
2023-06-24T04:01:01.332Z,10.00
2023-06-24T04:03:33.144Z,14.00
2023-06-24T04:06:03.381Z,15.00
2023-06-24T04:08:31.802Z,12.50
2023-06-24T04:11:04.708Z,11.00
2023-06-24T04:13:35.439Z,12.50
2023-06-24T04:16:04.124Z,14.50
2023-06-24T04:18:32.455Z,11.50
2023-06-24T04:21:00.917Z,9.75
2023-06-24T04:23:29.198Z,11.67
2023-06-24T04:25:57.462Z,13.00
2023-06-24T04:28:25.756Z,13.00
2023-06-24T04:30:56.065Z,12.50
2023-06-24T04:33:25.662Z,15.00
2023-06-24T04:35:54.588Z,10.67
2023-06-24T04:38:24.461Z,11.00
2023-06-24T04:40:53.893Z,14.00
2023-06-24T04:43:22.210Z,12.50
2023-06-24T04:45:50.853Z,9.00
2023-06-24T04:48:19.133Z,12.00
2023-06-24T04:50:47.397Z,13.67
2023-06-24T04:53:16.127Z,12.00
2023-06-24T04:55:44.412Z,11.00
2023-06-24T04:58:12.684Z,11.00
2023-06-24T05:00:40.965Z,14.50
2023-06-24T05:03:09.305Z,10.00
2023-06-24T05:05:37.993Z,16.00
2023-06-24T05:08:06.692Z,13.00
2023-06-24T05:10:34.939Z,16.33
2023-06-24T05:13:03.204Z,12.33
2023-06-24T05:15:31.460Z,15.67
2023-06-24T05:17:59.908Z,18.75
2023-06-24T05:20:28.281Z,15.67
2023-06-24T05:22:56.749Z,12.00
2023-06-24T05:25:25.125Z,11.50
2023-06-24T05:27:53.407Z,12.00
2023-06-24T05:30:21.774Z,11.00
2023-06-24T05:32:50.299Z,13.50
2023-06-24T05:35:18.546Z,10.00
2023-06-24T05:37:46.908Z,14.50
2023-06-24T05:40:15.294Z,11.00
2023-06-24T05:42:43.612Z,13.50
2023-06-24T05:45:12.037Z,13.00
2023-06-24T05:47:40.594Z,13.67
2023-06-24T05:50:09.007Z,15.00
2023-06-24T05:52:37.248Z,10.67
2023-06-24T05:55:05.990Z,12.00
2023-06-24T05:57:34.278Z,14.67
2023-06-24T06:00:04.765Z,7.00
2023-06-24T06:02:33.220Z,15.33
2023-06-24T06:05:02.807Z,15.00
2023-06-24T06:07:31.225Z,10.50
2023-06-24T06:09:59.522Z,15.00
2023-06-24T06:12:27.752Z,12.50
2023-06-24T06:14:56.026Z,13.50
2023-06-24T06:17:25.497Z,9.67
2023-06-24T06:19:53.930Z,10.00
2023-06-24T06:22:22.208Z,11.00
2023-06-24T06:24:50.443Z,17.50
2023-06-24T06:27:18.718Z,15.00
2023-06-24T06:29:47.124Z,10.00
2023-06-24T06:32:15.421Z,13.25
2023-06-24T06:34:43.818Z,14.50
2023-06-24T06:37:12.067Z,14.00
2023-06-24T06:39:40.441Z,13.75
2023-06-24T06:42:08.894Z,15.25
2023-06-24T06:44:37.140Z,14.00
2023-06-24T06:47:05.713Z,13.50
2023-06-24T06:49:34.190Z,6.33
2023-06-24T06:52:02.435Z,13.25
2023-06-24T06:54:30.787Z,11.00
2023-06-24T06:57:03.694Z,14.00
2023-06-24T06:59:33.037Z,16.00
2023-06-24T07:02:01.428Z,12.00
2023-06-24T07:04:29.733Z,13.00
2023-06-24T07:06:58.100Z,10.00
2023-06-24T07:09:26.520Z,10.50
2023-06-24T07:11:54.884Z,15.00
2023-06-24T07:14:23.156Z,13.00
2023-06-24T07:16:51.542Z,13.00
2023-06-24T07:19:19.856Z,13.00
2023-06-24T07:21:48.062Z,14.00
2023-06-24T07:24:16.376Z,15.33
2023-06-24T07:26:44.806Z,14.33
2023-06-24T07:29:13.186Z,16.00
2023-06-24T07:31:41.584Z,13.00
2023-06-24T07:34:09.960Z,10.00
2023-06-24T07:36:38.288Z,16.00
2023-06-24T07:39:06.994Z,11.33
2023-06-24T07:41:35.318Z,20.50
2023-06-24T07:44:03.821Z,16.00
2023-06-24T07:46:32.322Z,14.00
2023-06-24T07:49:00.697Z,16.00
2023-06-24T07:51:29.204Z,16.50
2023-06-24T07:53:57.469Z,21.00
2023-06-24T07:56:25.711Z,18.00
2023-06-24T07:58:54.228Z,20.00
2023-06-24T08:01:22.633Z,20.00
2023-06-24T08:03:51.033Z,21.50
2023-06-24T08:06:19.418Z,20.67
2023-06-24T08:08:47.917Z,22.00
2023-06-24T08:11:16.932Z,19.00
2023-06-24T08:13:45.322Z,20.00
2023-06-24T08:16:13.663Z,20.25
2023-06-24T08:18:42.015Z,20.00
2023-06-24T08:21:10.255Z,27.00
2023-06-24T08:23:38.544Z,20.00
2023-06-24T08:26:16.634Z,22.50
2023-06-24T08:28:47.750Z,23.00
2023-06-24T08:31:16.247Z,20.00
2023-06-24T08:33:47.633Z,20.50
2023-06-24T08:36:15.910Z,15.50
2023-06-24T08:38:44.205Z,21.50
2023-06-24T08:41:12.554Z,27.67
2023-06-24T08:43:41.411Z,25.67
2023-06-24T08:46:09.904Z,23.33
2023-06-24T08:48:41.634Z,22.00
2023-06-24T08:51:10.895Z,23.50
2023-06-24T08:53:40.321Z,27.50
2023-06-24T08:56:08.659Z,18.50
2023-06-24T08:58:37.370Z,28.00
2023-06-24T09:01:05.643Z,21.00
2023-06-24T09:03:34.083Z,25.50
2023-06-24T09:06:02.506Z,22.00
2023-06-24T09:08:30.968Z,24.00
2023-06-24T09:10:59.433Z,24.25
2023-06-24T09:13:37.404Z,20.50
2023-06-24T09:16:24.261Z,24.67
2023-06-24T09:18:53.407Z,25.00
2023-06-24T09:21:31.781Z,29.00
2023-06-24T09:24:00.216Z,24.00
2023-06-24T09:26:31.095Z,27.50
2023-06-24T09:28:59.542Z,20.00
2023-06-24T09:31:30.391Z,22.00
2023-06-24T09:33:59.900Z,17.67
2023-06-24T09:36:29.338Z,19.67
2023-06-24T09:39:14.235Z,22.00
2023-06-24T09:41:51.625Z,27.50
2023-06-24T09:44:22.910Z,22.00
2023-06-24T09:46:53.579Z,18.75
2023-06-24T09:49:21.925Z,25.00
2023-06-24T09:52:01.650Z,15.00
2023-06-24T09:54:33.818Z,22.00
2023-06-24T09:57:04.830Z,23.00
2023-06-24T09:59:36.283Z,26.50
2023-06-24T10:02:05.760Z,19.00
2023-06-24T10:04:34.278Z,23.00
2023-06-24T10:07:03.903Z,25.00
2023-06-24T10:09:32.484Z,20.00
2023-06-24T10:12:01.622Z,22.33
2023-06-24T10:14:29.959Z,20.67
2023-06-24T10:17:05.481Z,25.00
2023-06-24T10:19:40.726Z,23.67
2023-06-24T10:22:12.958Z,18.33
2023-06-24T10:24:45.703Z,18.50
2023-06-24T10:27:24.835Z,18.00
2023-06-24T10:29:54.430Z,22.00
2023-06-24T10:32:24.396Z,20.00
2023-06-24T10:34:57.399Z,24.00
2023-06-24T10:37:27.629Z,14.00
2023-06-24T10:39:59.918Z,20.00
2023-06-24T10:42:37.784Z,17.00
2023-06-24T10:45:15.195Z,28.25
2023-06-24T10:48:02.126Z,19.00
2023-06-24T10:50:30.513Z,21.50
2023-06-24T10:53:01.443Z,23.75
2023-06-24T10:55:29.769Z,21.33
2023-06-24T10:58:12.953Z,24.00
2023-06-24T11:00:42.162Z,24.00
2023-06-24T11:03:16.059Z,27.33
2023-06-24T11:05:46.408Z,21.00
2023-06-24T11:08:14.804Z,25.00
2023-06-24T11:10:47.143Z,24.50
2023-06-24T11:13:15.761Z,25.50
2023-06-24T11:15:43.979Z,25.00
2023-06-24T11:18:12.569Z,18.75
2023-06-24T11:20:41.713Z,21.33
2023-06-24T11:23:11.829Z,23.00
2023-06-24T11:25:44.680Z,19.33
2023-06-24T11:28:22.934Z,19.67
2023-06-24T11:30:51.964Z,19.50
2023-06-24T11:33:29.940Z,22.67
2023-06-24T11:35:58.341Z,24.33
2023-06-24T11:38:33.523Z,27.33
2023-06-24T11:41:02.225Z,28.50
2023-06-24T11:43:30.820Z,37.75
2023-06-24T11:45:59.216Z,25.00
2023-06-24T11:48:30.800Z,25.00
2023-06-24T11:50:59.262Z,22.00
2023-06-24T11:53:32.622Z,28.67
2023-06-24T11:56:01.118Z,24.67
2023-06-24T11:58:29.423Z,34.00
2023-06-24T12:00:58.748Z,23.67
2023-06-24T12:03:27.249Z,23.33
2023-06-24T12:05:55.671Z,32.33
2023-06-24T12:08:24.231Z,23.50
2023-06-24T12:10:53.175Z,22.67
2023-06-24T12:13:21.585Z,29.00
2023-06-24T12:15:49.846Z,23.25
2023-06-24T12:18:18.163Z,25.33
2023-06-24T12:20:46.501Z,21.75
2023-06-24T12:23:14.925Z,24.00
2023-06-24T12:25:43.614Z,24.00
2023-06-24T12:28:11.856Z,26.00
2023-06-24T12:30:40.087Z,25.50
2023-06-24T12:33:10.264Z,23.00
2023-06-24T12:35:38.771Z,23.33
2023-06-24T12:38:07.050Z,34.50
2023-06-24T12:40:35.720Z,37.00
2023-06-24T12:43:06.020Z,29.33
2023-06-24T12:45:34.372Z,29.50
2023-06-24T12:48:02.728Z,36.67
2023-06-24T12:50:33.208Z,31.00
2023-06-24T12:53:01.745Z,23.00
2023-06-24T12:55:31.005Z,28.00
2023-06-24T12:57:59.418Z,33.00
2023-06-24T13:00:27.815Z,30.00
2023-06-24T13:02:56.204Z,31.50
2023-06-24T13:05:25.145Z,31.75
2023-06-24T13:07:53.553Z,29.50
2023-06-24T13:10:22.311Z,29.50
2023-06-24T13:12:52.424Z,31.67
2023-06-24T13:15:20.902Z,34.00
2023-06-24T13:17:49.309Z,32.50
2023-06-24T13:20:17.672Z,36.67
2023-06-24T13:22:45.887Z,31.50
2023-06-24T13:25:16.576Z,34.33
2023-06-24T13:27:45.968Z,46.00
2023-06-24T13:30:16.639Z,42.75
2023-06-24T13:32:45.192Z,45.00
2023-06-24T13:35:13.446Z,48.00
2023-06-24T13:37:42.293Z,48.00
2023-06-24T13:40:11.816Z,42.33
2023-06-24T13:42:40.056Z,45.00
2023-06-24T13:45:08.724Z,50.00
2023-06-24T13:47:37.257Z,47.00
2023-06-24T13:50:06.125Z,48.33
2023-06-24T13:52:34.392Z,46.00
2023-06-24T13:55:02.661Z,38.00
2023-06-24T13:57:30.852Z,43.25
2023-06-24T13:59:59.636Z,34.33
2023-06-24T14:02:27.990Z,39.00
2023-06-24T14:04:56.431Z,40.67
2023-06-24T14:07:25.342Z,36.00
2023-06-24T14:09:53.886Z,33.00
2023-06-24T14:12:22.353Z,40.00
2023-06-24T14:14:50.721Z,36.00
2023-06-24T14:17:19.051Z,31.00
2023-06-24T14:19:47.676Z,38.00
2023-06-24T14:22:16.053Z,37.25
2023-06-24T14:24:44.724Z,34.00
2023-06-24T14:27:13.549Z,30.75
2023-06-24T14:29:41.883Z,33.67
2023-06-24T14:32:10.253Z,32.50
2023-06-24T14:34:38.762Z,37.00
2023-06-24T14:37:07.081Z,31.00
2023-06-24T14:39:35.377Z,31.33
2023-06-24T14:42:03.947Z,36.00
2023-06-24T14:44:32.251Z,36.33
2023-06-24T14:47:00.513Z,36.00
2023-06-24T14:49:28.780Z,29.00
2023-06-24T14:51:57.039Z,34.00
2023-06-24T14:54:25.361Z,26.00
2023-06-24T14:56:53.700Z,33.00
2023-06-24T14:59:21.975Z,31.33
2023-06-24T15:01:50.491Z,36.00
2023-06-24T15:04:20.040Z,33.00
2023-06-24T15:06:50.005Z,29.33
2023-06-24T15:09:18.542Z,28.50
2023-06-24T15:11:46.844Z,29.33
2023-06-24T15:14:15.128Z,23.50
2023-06-24T15:16:43.456Z,26.50
2023-06-24T15:19:11.766Z,24.00
2023-06-24T15:21:40.148Z,27.50
2023-06-24T15:24:08.471Z,25.00
2023-06-24T15:26:36.860Z,26.00
2023-06-24T15:29:05.175Z,29.50
2023-06-24T15:31:33.617Z,22.00
2023-06-24T15:34:02.078Z,22.00
2023-06-24T15:36:30.690Z,25.67
2023-06-24T15:38:59.067Z,29.00
2023-06-24T15:41:27.450Z,28.00
2023-06-24T15:43:55.808Z,25.67
2023-06-24T15:46:24.464Z,28.33
2023-06-24T15:48:52.780Z,29.00
2023-06-24T15:51:21.090Z,27.50
2023-06-24T15:53:49.489Z,23.00
2023-06-24T15:56:17.953Z,36.00
2023-06-24T15:58:46.367Z,24.67
2023-06-24T16:01:14.834Z,26.00
2023-06-24T16:03:43.304Z,27.00
2023-06-24T16:06:11.740Z,19.33
2023-06-24T16:08:40.002Z,32.67
2023-06-24T16:11:08.485Z,22.00
2023-06-24T16:13:36.985Z,27.00
2023-06-24T16:16:05.560Z,27.00
2023-06-24T16:18:33.883Z,30.00
2023-06-24T16:21:02.179Z,22.33
2023-06-24T16:23:30.520Z,24.50
2023-06-24T16:25:58.966Z,21.25
2023-06-24T16:28:27.755Z,19.00
2023-06-24T16:30:56.143Z,28.50
2023-06-24T16:33:24.591Z,22.00
2023-06-24T16:35:52.984Z,24.67
2023-06-24T16:38:21.242Z,21.50
2023-06-24T16:40:49.659Z,24.67
2023-06-24T16:43:17.892Z,22.00
2023-06-24T16:45:47.815Z,26.00
2023-06-24T16:48:16.263Z,18.00
2023-06-24T16:50:44.649Z,19.50
2023-06-24T16:53:12.930Z,25.50
2023-06-24T16:55:41.133Z,23.50
2023-06-24T16:58:09.322Z,23.00
2023-06-24T17:00:37.729Z,26.67
2023-06-24T17:03:06.326Z,28.00
2023-06-24T17:05:39.338Z,58.00
2023-06-24T17:08:08.610Z,149.25
2023-06-24T17:10:37.473Z,140.00
2023-06-24T17:13:05.986Z,161.00
2023-06-24T17:15:34.341Z,161.00
2023-06-24T17:18:02.727Z,162.00
2023-06-24T17:20:31.086Z,170.67
2023-06-24T17:22:59.496Z,146.50
2023-06-24T17:25:27.814Z,143.00
2023-06-24T17:27:56.142Z,125.00
2023-06-24T17:30:25.289Z,133.75
2023-06-24T17:32:53.642Z,113.33
2023-06-24T17:35:25.292Z,110.00
2023-06-24T17:37:53.585Z,86.00
2023-06-24T17:40:21.990Z,133.67
2023-06-24T17:42:50.359Z,98.50
2023-06-24T17:45:18.800Z,86.50
2023-06-24T17:47:47.315Z,82.50
2023-06-24T17:50:15.671Z,78.67
2023-06-24T17:52:43.994Z,82.00
2023-06-24T17:55:12.324Z,73.33
2023-06-24T17:57:40.622Z,72.00
2023-06-24T18:00:09.981Z,69.67
2023-06-24T18:02:38.573Z,67.00
2023-06-24T18:05:07.361Z,66.00
2023-06-24T18:07:35.783Z,67.50
2023-06-24T18:10:04.526Z,61.00
2023-06-24T18:12:32.858Z,59.33
2023-06-24T18:15:01.195Z,62.67
2023-06-24T18:17:29.601Z,54.00
2023-06-24T18:19:57.998Z,61.00
2023-06-24T18:22:26.415Z,51.00
2023-06-24T18:24:55.146Z,49.50
2023-06-24T18:27:24.945Z,52.33
2023-06-24T18:29:54.064Z,47.00
2023-06-24T18:32:25.423Z,43.00
2023-06-24T18:34:57.487Z,42.50
2023-06-24T18:37:25.776Z,38.00
2023-06-24T18:39:54.037Z,50.50
2023-06-24T18:42:23.800Z,43.33
2023-06-24T18:44:52.019Z,32.75
2023-06-24T18:47:20.321Z,47.00
2023-06-24T18:49:48.720Z,38.25
2023-06-24T18:52:16.992Z,46.25
2023-06-24T18:54:46.433Z,40.50
2023-06-24T18:57:14.897Z,43.33
2023-06-24T18:59:44.624Z,37.50
2023-06-24T19:02:13.490Z,39.00
2023-06-24T19:04:43.042Z,45.50
2023-06-24T19:07:11.487Z,37.00
2023-06-24T19:09:39.857Z,36.00
2023-06-24T19:12:08.475Z,34.50
2023-06-24T19:14:36.849Z,37.00
2023-06-24T19:17:05.387Z,35.50
2023-06-24T19:19:33.638Z,42.33
2023-06-24T19:22:04.753Z,39.00
2023-06-24T19:24:37.486Z,40.00
2023-06-24T19:27:05.984Z,34.00
2023-06-24T19:29:34.240Z,35.75
2023-06-24T19:32:02.707Z,37.00
2023-06-24T19:34:31.283Z,30.50
2023-06-24T19:36:59.643Z,36.00
2023-06-24T19:39:29.425Z,32.75
2023-06-24T19:41:58.664Z,30.67
2023-06-24T19:44:27.050Z,37.00
2023-06-24T19:46:55.389Z,41.50
2023-06-24T19:49:23.744Z,34.00
2023-06-24T19:51:52.125Z,34.00
2023-06-24T19:54:21.002Z,39.50
2023-06-24T19:56:52.025Z,31.00
2023-06-24T19:59:20.514Z,30.67
2023-06-24T20:01:48.917Z,32.33
2023-06-24T20:04:17.244Z,27.33
2023-06-24T20:06:45.599Z,23.00
2023-06-24T20:09:13.884Z,25.00
2023-06-24T20:11:42.103Z,30.25
2023-06-24T20:14:10.386Z,37.50
2023-06-24T20:16:38.738Z,25.00
2023-06-24T20:19:07.109Z,32.00
2023-06-24T20:21:35.701Z,24.33
2023-06-24T20:24:04.188Z,34.00
2023-06-24T20:26:32.641Z,23.00
2023-06-24T20:29:00.944Z,33.00
2023-06-24T20:31:29.364Z,24.00
2023-06-24T20:33:57.639Z,31.00
2023-06-24T20:36:25.876Z,29.00
2023-06-24T20:38:54.099Z,27.67
2023-06-24T20:41:24.411Z,26.33
2023-06-24T20:43:52.678Z,27.00
2023-06-24T20:46:20.991Z,21.67
2023-06-24T20:48:49.256Z,21.00
2023-06-24T20:51:17.616Z,23.00
2023-06-24T20:53:46.035Z,22.50
2023-06-24T20:56:14.584Z,26.00
2023-06-24T20:58:43.124Z,25.00
2023-06-24T21:01:12.594Z,25.33
2023-06-24T21:03:41.485Z,24.33
2023-06-24T21:06:09.834Z,28.50
2023-06-24T21:08:38.180Z,21.75
2023-06-24T21:11:06.566Z,25.50
2023-06-24T21:13:34.782Z,23.00
2023-06-24T21:16:03.059Z,26.00
2023-06-24T21:18:31.396Z,20.00
2023-06-24T21:20:59.774Z,21.00
2023-06-24T21:23:27.993Z,23.00
2023-06-24T21:25:56.345Z,20.00
2023-06-24T21:28:24.688Z,24.33
2023-06-24T21:30:53.045Z,23.00
2023-06-24T21:33:21.399Z,20.00
2023-06-24T21:36:00.142Z,16.00
2023-06-24T21:38:30.138Z,20.00
2023-06-24T21:40:58.462Z,22.50
2023-06-24T21:43:26.743Z,18.00
2023-06-24T21:45:54.964Z,21.33
2023-06-24T21:48:23.248Z,20.67
2023-06-24T21:50:51.643Z,30.00
2023-06-24T21:53:19.976Z,15.00
2023-06-24T21:55:48.544Z,15.33
2023-06-24T21:58:16.840Z,15.75
2023-06-24T22:00:47.345Z,17.00
2023-06-24T22:03:15.928Z,19.00
2023-06-24T22:05:44.669Z,17.50
2023-06-24T22:08:13.090Z,20.00
2023-06-24T22:10:41.426Z,19.50
2023-06-24T22:13:09.723Z,21.75
2023-06-24T22:15:38.223Z,18.75
2023-06-24T22:18:07.669Z,18.00
2023-06-24T22:20:36.474Z,16.00
2023-06-24T22:23:05.088Z,18.33
2023-06-24T22:25:33.607Z,16.00
2023-06-24T22:28:01.894Z,16.33
2023-06-24T22:30:31.921Z,18.75
2023-06-24T22:33:00.309Z,16.50
2023-06-24T22:35:28.619Z,14.67
2023-06-24T22:37:56.792Z,14.67
2023-06-24T22:40:25.936Z,16.00
2023-06-24T22:42:54.240Z,18.33
2023-06-24T22:45:22.542Z,20.50
2023-06-24T22:47:50.846Z,14.67
2023-06-24T22:50:19.175Z,17.50
2023-06-24T22:52:47.641Z,16.00
2023-06-24T22:55:16.025Z,18.50
2023-06-24T22:57:44.320Z,16.00
2023-06-24T23:00:13.052Z,16.33
2023-06-24T23:02:41.819Z,16.00
2023-06-24T23:05:11.178Z,20.00
2023-06-24T23:07:39.648Z,19.00
2023-06-24T23:10:08.930Z,18.00
2023-06-24T23:12:38.029Z,14.50
2023-06-24T23:15:07.276Z,14.67
2023-06-24T23:17:35.717Z,13.67
2023-06-24T23:20:06.415Z,15.00
2023-06-24T23:22:35.008Z,16.00
2023-06-24T23:25:03.476Z,17.50
2023-06-24T23:27:37.253Z,14.67
2023-06-24T23:30:09.778Z,15.00
2023-06-24T23:32:39.827Z,16.00
2023-06-24T23:35:12.234Z,15.67
2023-06-24T23:37:41.597Z,12.00
2023-06-24T23:40:10.418Z,17.33
2023-06-24T23:42:39.944Z,14.50
2023-06-24T23:45:10.316Z,15.00
2023-06-24T23:47:38.603Z,17.50
2023-06-24T23:50:07.670Z,11.00
2023-06-24T23:52:35.895Z,14.67
2023-06-24T23:55:04.501Z,17.00
2023-06-24T23:57:32.807Z,18.00
